Time;durP1;ratioP1;P1;durP2;ratioP2;P2;SDS_P1;SDS_P2;PMS_P1;PMS_P2;Temp;Humidity;BMP_temperature;BMP_pressure;BME280_temperature;BME280_humidity;BME280_pressure;Samples;Min_cycle;Max_cycle;Signal;HPM_P1;HPM_P2
2021/06/05 00:01:22;;;;;;;2.83;1.73;;;;;;;14.16;56.94;100069.38;6150820;23;20026;-82
2021/06/05 00:03:49;;;;;;;2.95;1.52;;;;;;;14.28;56.74;100066.34;6176551;23;20105;-81
2021/06/05 00:06:17;;;;;;;12.18;3.40;;;;;;;14.31;57.02;100066.88;6154347;23;20037;-82
2021/06/05 00:08:43;;;;;;;6.53;2.00;;;;;;;14.28;56.48;100066.34;6155550;23;20025;-82
2021/06/05 00:11:10;;;;;;;3.75;1.60;;;;;;;14.33;55.50;100063.97;6154877;23;20028;-81
2021/06/05 00:13:40;;;;;;;3.10;1.58;;;;;;;14.37;56.24;100059.91;6155795;23;20049;-82
2021/06/05 00:16:08;;;;;;;2.58;1.40;;;;;;;14.36;56.02;100063.66;6153979;23;20062;-82
2021/06/05 00:18:35;;;;;;;5.15;1.40;;;;;;;14.38;56.22;100061.63;6127692;23;20021;-81
2021/06/05 00:21:01;;;;;;;3.72;1.40;;;;;;;14.44;55.39;100063.66;6152262;23;20025;-82
2021/06/05 00:23:27;;;;;;;3.45;1.60;;;;;;;14.48;56.10;100065.06;6152420;23;20120;-82
2021/06/05 00:25:58;;;;;;;3.42;1.30;;;;;;;14.44;55.04;100060.94;6151064;23;20021;-82
2021/06/05 00:28:24;;;;;;;3.47;1.63;;;;;;;14.52;55.56;100069.19;6150983;23;20021;-81
2021/06/05 00:30:51;;;;;;;3.17;1.58;;;;;;;14.54;55.27;100061.69;6176134;23;20116;-85
2021/06/05 00:33:17;;;;;;;11.55;2.80;;;;;;;14.57;55.60;100061.34;6152061;23;20024;-81
2021/06/05 00:35:44;;;;;;;2.60;1.60;;;;;;;14.57;54.68;100061.34;6153090;23;20070;-82
2021/06/05 00:38:11;;;;;;;5.65;1.70;;;;;;;14.58;55.23;100065.78;6152120;23;20432;-81
2021/06/05 00:40:40;;;;;;;4.15;1.40;;;;;;;14.58;54.97;100062.22;6152024;23;20062;-81
2021/06/05 00:43:07;;;;;;;2.60;1.75;;;;;;;14.60;54.56;100060.19;6126841;23;20024;-81
2021/06/05 00:45:38;;;;;;;4.65;2.10;;;;;;;14.59;54.36;100063.91;6127453;23;20025;-82
2021/06/05 00:48:05;;;;;;;4.90;1.83;;;;;;;14.61;54.81;100060.00;6175724;23;20037;-82
2021/06/05 00:50:37;;;;;;;4.63;1.60;;;;;;;14.56;54.83;100058.81;6175456;23;20025;-82
2021/06/05 00:53:05;;;;;;;4.40;1.40;;;;;;;14.52;54.66;100052.84;6125905;23;20025;-80
2021/06/05 00:55:33;;;;;;;3.83;1.70;;;;;;;14.50;55.13;100054.88;6126139;23;20036;-82
2021/06/05 00:58:00;;;;;;;4.40;1.70;;;;;;;14.41;55.17;100051.28;6126665;23;20013;-83
2021/06/05 01:00:41;;;;;;;2.47;1.55;;;;;;;14.31;55.68;100049.72;6150673;23;20033;-83
2021/06/05 01:03:08;;;;;;;2.55;1.33;;;;;;;14.21;55.83;100050.69;6152637;23;20013;-82
2021/06/05 01:05:37;;;;;;;3.92;1.40;;;;;;;14.09;55.93;100052.00;6150906;23;20025;-82
2021/06/05 01:08:33;;;;;;;1.58;1.40;;;;;;;14.01;56.49;100042.97;6150743;23;20076;-81
2021/06/05 01:11:26;;;;;;;2.55;1.55;;;;;;;13.91;56.81;100045.81;6174727;23;20032;-81
2021/06/05 01:14:01;;;;;;;4.45;1.70;;;;;;;13.79;57.43;100039.81;6141763;23;20029;-83
2021/06/05 01:16:28;;;;;;;3.90;1.42;;;;;;;13.70;57.04;100041.63;6150251;23;20026;-82
2021/06/05 01:18:58;;;;;;;3.92;1.20;;;;;;;13.68;57.57;100048.25;6151886;23;20460;-83
2021/06/05 01:21:58;;;;;;;7.10;2.03;;;;;;;13.62;57.22;100032.59;6152738;23;20076;-82
2021/06/05 01:24:47;;;;;;;9.15;1.90;;;;;;;13.64;57.66;100039.59;6174524;23;20037;-81
2021/06/05 01:27:27;;;;;;;5.80;1.70;;;;;;;13.56;58.16;100035.94;6174867;23;20143;-80
2021/06/05 01:30:00;;;;;;;3.60;1.33;;;;;;;13.54;57.54;100041.56;6149627;23;20455;-83
2021/06/05 01:32:30;;;;;;;2.42;1.40;;;;;;;13.50;58.00;100040.19;6177619;23;20570;-81
2021/06/05 01:34:57;;;;;;;12.27;2.78;;;;;;;13.45;58.56;100037.06;6149895;23;20108;-83
2021/06/05 01:37:27;;;;;;;2.97;1.60;;;;;;;13.37;58.24;100028.88;6125570;23;20051;-82
2021/06/05 01:40:04;;;;;;;6.35;1.63;;;;;;;13.36;58.86;100038.03;6129150;23;20514;-82
2021/06/05 01:42:33;;;;;;;2.22;1.23;;;;;;;13.33;59.06;100027.50;6101107;23;20025;-82
2021/06/05 01:45:00;;;;;;;5.22;4.75;;;;;;;13.29;59.04;100034.25;6149048;23;20044;-81
2021/06/05 01:47:29;;;;;;;3.72;2.38;;;;;;;13.25;59.08;100026.44;6150875;23;20025;-81
2021/06/05 01:49:57;;;;;;;3.17;1.55;;;;;;;13.23;59.02;100028.44;6100960;23;20048;-82
2021/06/05 01:52:27;;;;;;;5.88;1.67;;;;;;;13.25;59.60;100026.44;6149006;23;20053;-81
2021/06/05 01:55:07;;;;;;;2.67;1.60;;;;;;;13.24;59.14;100022.03;6173401;23;20017;-82
2021/06/05 01:57:37;;;;;;;5.53;2.13;;;;;;;13.22;60.54;100021.28;6125436;23;20097;-82
2021/06/05 02:00:31;;;;;;;2.50;1.67;;;;;;;13.25;59.71;100020.16;6128673;23;20044;-82
2021/06/05 02:03:00;;;;;;;5.93;1.80;;;;;;;13.24;59.88;100024.75;6174242;23;20018;-82
2021/06/05 02:05:32;;;;;;;3.50;1.63;;;;;;;13.27;60.41;100018.13;6149877;23;20037;-80
2021/06/05 02:08:03;;;;;;;3.92;1.98;;;;;;;13.27;60.84;100019.00;6150552;23;20017;-80
2021/06/05 02:10:31;;;;;;;2.38;1.63;;;;;;;13.30;60.09;100022.38;6174762;23;20441;-81
2021/06/05 02:12:59;;;;;;;4.32;1.73;;;;;;;13.31;60.65;100018.66;6126869;23;20017;-82
2021/06/05 02:15:53;;;;;;;2.40;1.23;;;;;;;13.34;60.77;100012.91;6154249;23;20033;-82
2021/06/05 02:18:25;;;;;;;7.57;1.85;;;;;;;13.38;61.32;100014.28;6135185;23;20029;-82
2021/06/05 02:21:04;;;;;;;2.95;1.50;;;;;;;13.42;61.47;100018.38;6141846;23;20037;-82
2021/06/05 02:23:42;;;;;;;4.00;1.33;;;;;;;13.51;60.53;100018.28;6165534;23;20097;-82
2021/06/05 02:26:09;;;;;;;5.95;1.70;;;;;;;13.57;58.93;100018.66;6189301;23;20025;-82
2021/06/05 02:28:38;;;;;;;4.75;1.80;;;;;;;13.62;59.28;100014.44;6131731;23;20100;-83
2021/06/05 02:31:06;;;;;;;3.55;1.42;;;;;;;13.77;59.18;100020.09;6164013;23;20060;-82
2021/06/05 02:33:34;;;;;;;5.10;1.50;;;;;;;13.88;56.13;100017.09;6166066;23;20025;-80
2021/06/05 02:36:03;;;;;;;3.60;1.30;;;;;;;14.02;55.61;100012.91;6114645;23;20026;-82
2021/06/05 02:38:35;;;;;;;3.33;1.70;;;;;;;14.16;55.00;100009.56;6132327;23;20068;-81
2021/06/05 02:41:07;;;;;;;3.25;1.50;;;;;;;14.29;55.53;100009.06;6150247;23;20022;-81
2021/06/05 02:43:36;;;;;;;1.77;1.30;;;;;;;14.40;54.65;100014.19;6126230;23;20045;-80
2021/06/05 02:46:09;;;;;;;2.30;1.30;;;;;;;14.46;55.55;100009.97;6176215;23;20028;-82
2021/06/05 02:48:44;;;;;;;3.25;1.23;;;;;;;14.62;54.39;100010.00;6150650;23;20025;-80
2021/06/05 02:51:12;;;;;;;9.10;1.40;;;;;;;14.77;54.27;100012.06;6151518;23;20056;-82
2021/06/05 02:53:39;;;;;;;2.88;1.27;;;;;;;14.91;53.71;100009.50;6125755;23;20017;-81
2021/06/05 02:56:07;;;;;;;9.90;2.30;;;;;;;15.09;53.42;100011.19;6149379;23;20104;-80
2021/06/05 02:58:36;;;;;;;4.38;1.40;;;;;;;15.25;53.19;100010.31;6174438;23;20025;-81
2021/06/05 03:01:05;;;;;;;3.05;1.35;;;;;;;15.39;51.95;100017.78;6150627;23;20051;-82
2021/06/05 03:03:33;;;;;;;4.60;1.45;;;;;;;15.55;52.32;100012.31;6053937;23;20159;-82
2021/06/05 03:06:00;;;;;;;1.88;1.30;;;;;;;15.70;52.92;100019.81;6125989;23;20466;-81
2021/06/05 03:08:29;;;;;;;2.40;1.30;;;;;;;15.80;51.64;100012.28;6150003;23;20072;-82
2021/06/05 03:10:59;;;;;;;2.17;1.30;;;;;;;15.97;50.67;100008.44;6125741;23;20025;-81
2021/06/05 03:13:26;;;;;;;4.47;1.30;;;;;;;16.23;50.96;99999.09;6129206;23;20036;-81
2021/06/05 03:15:54;;;;;;;2.53;1.30;;;;;;;16.33;49.58;100000.56;6143630;23;20065;-82
2021/06/05 03:18:27;;;;;;;6.20;2.20;;;;;;;16.45;49.56;100000.16;6165678;23;20025;-81
2021/06/05 03:20:57;;;;;;;3.20;1.33;;;;;;;16.53;49.26;99998.25;6188585;23;20056;-81
2021/06/05 03:23:26;;;;;;;4.55;1.70;;;;;;;16.76;48.86;99987.34;6115189;23;20033;-81
2021/06/05 03:25:52;;;;;;;5.50;1.77;;;;;;;17.02;48.67;99994.31;6154647;23;20018;-82
2021/06/05 03:28:21;;;;;;;2.65;1.45;;;;;;;17.24;48.18;99985.19;6179234;23;20544;-81
2021/06/05 03:30:48;;;;;;;7.40;1.35;;;;;;;17.47;46.85;99993.31;6152074;23;20025;-84
2021/06/05 03:33:17;;;;;;;3.47;1.65;;;;;;;17.72;46.00;99987.59;6154210;23;20263;-81
2021/06/05 03:35:44;;;;;;;4.15;1.63;;;;;;;18.01;45.70;99990.31;6102298;23;20033;-83
2021/06/05 03:38:10;;;;;;;3.28;1.73;;;;;;;18.26;45.04;99995.47;6177561;23;20024;-85
2021/06/05 03:40:39;;;;;;;3.58;1.23;;;;;;;18.22;45.54;99994.16;6153840;23;20534;-82
2021/06/05 03:43:06;;;;;;;3.03;1.48;;;;;;;18.31;45.35;99990.25;6154873;23;20087;-84
2021/06/05 03:45:34;;;;;;;2.90;1.33;;;;;;;18.45;44.30;99992.09;6162832;23;20100;-82
2021/06/05 03:48:03;;;;;;;3.70;1.40;;;;;;;18.74;43.83;99987.56;6159081;23;20056;-82
2021/06/05 03:50:34;;;;;;;2.67;1.35;;;;;;;18.84;43.53;99979.88;6182910;23;20388;-81
2021/06/05 03:53:02;;;;;;;3.83;1.20;;;;;;;19.03;43.36;99984.69;6157044;23;20028;-82
2021/06/05 03:55:29;;;;;;;2.90;1.10;;;;;;;19.25;42.61;99981.91;6132738;23;20289;-82
2021/06/05 03:57:59;;;;;;;2.97;1.20;;;;;;;19.43;42.79;99984.13;6155213;23;20017;-82
2021/06/05 04:00:34;;;;;;;1.67;1.10;;;;;;;19.55;42.96;99988.00;6156635;23;20304;-83
2021/06/05 04:03:00;;;;;;;4.25;1.40;;;;;;;19.70;43.06;99991.50;6104999;23;20013;-80
2021/06/05 04:05:27;;;;;;;2.40;1.40;;;;;;;19.92;42.05;99966.72;6152402;23;20017;-81
2021/06/05 04:07:54;;;;;;;3.42;1.45;;;;;;;20.12;41.43;99975.03;6150593;23;20025;-81
2021/06/05 04:10:22;;;;;;;2.92;1.30;;;;;;;20.01;41.16;99984.72;6153396;23;20021;-81
2021/06/05 04:12:49;;;;;;;2.58;1.27;;;;;;;20.27;40.52;99980.38;6154100;23;20013;-81
2021/06/05 04:15:24;;;;;;;2.70;1.45;;;;;;;20.35;40.37;99982.94;6154003;23;20028;-82
2021/06/05 04:18:20;;;;;;;3.50;1.50;;;;;;;20.69;40.04;99974.56;6153622;23;20397;-82
2021/06/05 04:20:46;;;;;;;1.90;1.10;;;;;;;21.02;39.94;99967.41;6153480;23;20027;-82
2021/06/05 04:23:15;;;;;;;3.05;1.42;;;;;;;20.95;39.81;99971.03;6130809;23;20021;-84
2021/06/05 04:25:42;;;;;;;4.05;1.23;;;;;;;21.33;39.14;99964.88;6155668;23;20433;-82
2021/06/05 04:28:11;;;;;;;3.53;1.27;;;;;;;21.72;38.55;99963.13;6107614;23;20021;-82
2021/06/05 04:30:38;;;;;;;3.05;1.52;;;;;;;21.86;37.85;99953.72;6180294;23;20025;-83
2021/06/05 04:33:05;;;;;;;2.65;1.45;;;;;;;21.41;37.84;99956.41;6153763;23;20044;-84
2021/06/05 04:35:31;;;;;;;1.70;1.20;;;;;;;21.77;37.45;99957.81;6180638;23;20044;-83
2021/06/05 04:37:57;;;;;;;2.35;1.40;;;;;;;21.90;37.44;99954.13;6157285;23;20039;-83
2021/06/05 04:40:24;;;;;;;3.13;1.30;;;;;;;21.91;37.12;99950.34;6130569;23;20285;-81
2021/06/05 04:42:51;;;;;;;2.10;1.40;;;;;;;22.27;36.44;99951.72;6162447;23;20022;-83
2021/06/05 04:45:19;;;;;;;4.22;1.60;;;;;;;22.56;36.56;99952.97;6133810;23;20028;-84
2021/06/05 04:47:45;;;;;;;7.32;2.45;;;;;;;22.72;36.36;99949.72;6160739;23;20032;-84
2021/06/05 04:50:14;;;;;;;4.25;1.23;;;;;;;22.85;36.41;99955.13;6162999;23;20018;-83
2021/06/05 04:52:40;;;;;;;5.40;1.70;;;;;;;23.02;36.48;99957.34;6154378;23;20104;-84
2021/06/05 04:55:09;;;;;;;4.63;2.10;;;;;;;23.04;36.40;99949.72;6160338;23;20036;-84
2021/06/05 04:57:35;;;;;;;4.28;2.10;;;;;;;23.30;35.72;99949.47;6134929;23;20033;-84
2021/06/05 05:00:08;;;;;;;3.75;1.70;;;;;;;23.73;34.78;99944.97;6181107;23;20044;-82
2021/06/05 05:02:35;;;;;;;3.05;1.52;;;;;;;23.77;34.70;99949.84;6138609;23;20456;-85
2021/06/05 05:05:04;;;;;;;3.17;1.70;;;;;;;24.00;33.68;99937.22;6136933;23;20045;-84
2021/06/05 05:07:32;;;;;;;6.78;1.90;;;;;;;24.33;33.38;99947.00;6157614;23;20035;-84
2021/06/05 05:09:58;;;;;;;2.40;1.70;;;;;;;24.39;33.06;99946.03;6183750;23;20018;-84
2021/06/05 05:12:24;;;;;;;4.20;1.98;;;;;;;24.69;32.45;99938.63;6156969;23;20033;-86
2021/06/05 05:14:51;;;;;;;4.13;1.50;;;;;;;24.76;33.47;99931.06;6158537;23;20077;-82
2021/06/05 05:17:17;;;;;;;4.00;1.75;;;;;;;24.85;33.17;99930.72;6164633;23;20021;-83
2021/06/05 05:19:45;;;;;;;6.63;2.22;;;;;;;24.93;32.36;99925.66;6185393;23;20022;-83
2021/06/05 05:22:12;;;;;;;5.18;1.63;;;;;;;25.35;32.11;99928.38;6161500;23;20069;-84
2021/06/05 05:24:38;;;;;;;6.72;1.77;;;;;;;25.87;31.03;99925.66;6162974;23;20021;-83
2021/06/05 05:27:06;;;;;;;4.90;2.25;;;;;;;25.89;30.64;99922.66;6161727;23;20021;-85
2021/06/05 05:29:32;;;;;;;5.28;1.92;;;;;;;26.05;30.96;99923.81;6161035;23;20021;-83
2021/06/05 05:32:01;;;;;;;4.45;2.00;;;;;;;26.00;30.56;99927.34;6142706;23;20018;-85
2021/06/05 05:34:27;;;;;;;4.85;2.10;;;;;;;26.46;30.31;99925.47;6169975;23;20079;-83
2021/06/05 05:36:54;;;;;;;3.45;1.77;;;;;;;26.56;30.07;99928.44;6166300;23;20037;-85
2021/06/05 05:39:22;;;;;;;8.32;2.00;;;;;;;26.90;29.99;99922.91;6119004;23;20017;-85
2021/06/05 05:41:49;;;;;;;2.92;1.83;;;;;;;27.70;30.01;99926.38;6144401;23;20021;-84
2021/06/05 05:44:17;;;;;;;5.05;1.67;;;;;;;28.08;28.70;99925.50;6192212;23;20068;-87
2021/06/05 05:46:44;;;;;;;3.90;1.85;;;;;;;28.17;28.28;99920.34;6150897;23;20048;-85
2021/06/05 05:49:11;;;;;;;3.88;1.70;;;;;;;28.63;27.54;99926.38;6176304;23;20033;-86
2021/06/05 05:51:39;;;;;;;6.43;1.85;;;;;;;29.17;26.82;99917.97;6145441;23;20009;-85
2021/06/05 05:54:07;;;;;;;6.50;2.30;;;;;;;29.04;26.71;99900.63;6144628;23;20115;-84
2021/06/05 05:56:34;;;;;;;2.38;1.90;;;;;;;29.14;27.07;99901.81;6195353;23;20478;-88
2021/06/05 05:59:03;;;;;;;3.22;2.05;;;;;;;29.05;26.57;99893.94;6196842;23;20025;-87
2021/06/05 06:01:31;;;;;;;4.40;1.80;;;;;;;29.51;26.06;99897.03;6136552;23;20025;-85
2021/06/05 06:03:58;;;;;;;6.05;1.83;;;;;;;29.32;26.41;99887.44;6138002;23;20021;-86
2021/06/05 06:06:32;;;;;;;4.63;2.08;;;;;;;29.89;25.71;99886.66;6170600;23;20017;-87
2021/06/05 06:09:02;;;;;;;8.02;2.00;;;;;;;30.24;25.15;99890.69;6118958;23;20022;-85
2021/06/05 06:11:29;;;;;;;3.08;1.48;;;;;;;30.10;25.30;99883.94;6166673;23;20529;-85
2021/06/05 06:13:56;;;;;;;5.28;2.28;;;;;;;30.18;24.38;99891.81;6165223;23;20062;-83
2021/06/05 06:16:24;;;;;;;3.20;1.52;;;;;;;30.30;23.58;99892.38;6142010;23;20124;-84
2021/06/05 06:18:50;;;;;;;4.50;2.20;;;;;;;30.00;24.77;99888.38;6146964;23;20077;-86
2021/06/05 06:21:19;;;;;;;2.85;2.10;;;;;;;29.63;25.11;99882.09;6118124;23;20442;-86
2021/06/05 06:23:47;;;;;;;4.32;2.33;;;;;;;29.98;24.98;99878.59;6170235;23;20021;-87
2021/06/05 06:26:19;;;;;;;5.93;1.90;;;;;;;30.27;24.95;99890.97;6124324;23;20037;-86
2021/06/05 06:28:47;;;;;;;4.97;1.90;;;;;;;30.47;24.53;99892.97;6174178;23;20464;-88
2021/06/05 06:31:16;;;;;;;6.63;1.85;;;;;;;30.61;23.84;99882.13;6148240;23;20025;-86
2021/06/05 06:33:43;;;;;;;1.98;1.52;;;;;;;30.20;23.83;99876.47;6143028;23;20468;-86
2021/06/05 06:36:15;;;;;;;3.38;1.90;;;;;;;30.38;23.33;99880.66;6118305;23;20037;-88
2021/06/05 06:38:43;;;;;;;5.57;1.75;;;;;;;30.13;23.27;99869.44;6137065;23;20459;-87
2021/06/05 06:41:16;;;;;;;6.00;2.50;;;;;;;30.51;23.56;99871.78;6139226;23;20091;-86
2021/06/05 06:43:44;;;;;;;6.13;2.05;;;;;;;30.58;23.37;99870.66;6145655;23;20005;-85
2021/06/05 06:46:24;;;;;;;4.47;1.70;;;;;;;30.95;23.23;99876.81;6172042;23;20025;-88
2021/06/05 06:48:55;;;;;;;4.63;1.90;;;;;;;30.81;23.54;99858.13;6168281;23;20045;-88
2021/06/05 06:51:23;;;;;;;4.82;1.77;;;;;;;30.92;22.36;99860.63;6172286;23;20036;-89
2021/06/05 06:56:46;;;;;;;7.30;2.10;;;;;;;30.26;22.81;99868.94;6205254;22;20076;-88
2021/06/05 06:59:13;;;;;;;4.15;1.70;;;;;;;30.56;23.21;99856.13;6181507;23;20008;-89
2021/06/05 07:01:41;;;;;;;3.65;1.90;;;;;;;30.77;23.17;99852.28;6182657;23;20076;-87
2021/06/05 07:04:10;;;;;;;2.63;1.83;;;;;;;31.32;22.29;99853.31;6202458;23;20097;-87
2021/06/05 07:06:37;;;;;;;7.75;2.22;;;;;;;31.89;22.12;99854.81;6115847;23;20103;-84
2021/06/05 07:09:08;;;;;;;5.47;2.00;;;;;;;31.57;22.44;99843.19;6140465;23;20089;-85
2021/06/05 07:11:38;;;;;;;4.70;1.90;;;;;;;31.82;21.47;99845.88;6116732;23;20024;-84
2021/06/05 07:14:06;;;;;;;4.68;1.98;;;;;;;32.45;20.66;99858.44;6143021;23;20020;-83
2021/06/05 07:16:40;;;;;;;19.65;2.85;;;;;;;31.48;20.39;99858.88;6195941;23;20107;-84
2021/06/05 07:19:18;;;;;;;3.45;2.10;;;;;;;31.05;21.25;99841.66;6147732;23;20147;-84
2021/06/05 07:21:47;;;;;;;12.93;3.17;;;;;;;31.72;21.59;99836.69;6169121;23;20092;-84
2021/06/05 07:24:14;;;;;;;4.25;2.00;;;;;;;32.09;21.32;99839.88;6188879;23;20055;-86
2021/06/05 07:26:43;;;;;;;3.03;2.00;;;;;;;32.31;21.24;99844.22;6185045;23;20099;-84
2021/06/05 07:29:12;;;;;;;10.07;2.53;;;;;;;31.20;21.61;99834.06;6175727;23;20025;-86
2021/06/05 07:31:45;;;;;;;9.48;2.55;;;;;;;31.86;21.23;99835.81;6171099;23;20090;-84
2021/06/05 07:34:15;;;;;;;6.45;2.33;;;;;;;31.28;21.46;99824.25;6188317;23;20024;-84
2021/06/05 07:36:45;;;;;;;6.53;2.30;;;;;;;32.12;20.53;99816.09;6148358;23;20029;-86
2021/06/05 07:39:17;;;;;;;14.02;3.22;;;;;;;31.99;21.23;99831.53;6198947;23;20025;-87
2021/06/05 07:41:54;;;;;;;4.22;2.00;;;;;;;32.54;20.17;99823.06;6154905;22;20047;-87
2021/06/05 07:44:36;;;;;;;3.67;2.25;;;;;;;32.23;20.33;99828.88;6182459;22;20017;-85
2021/06/05 07:47:16;;;;;;;2.90;1.95;;;;;;;31.90;20.61;99824.91;6192767;23;20080;-86
2021/06/05 07:49:43;;;;;;;3.03;2.20;;;;;;;32.85;20.55;99818.88;6171515;23;20017;-83
2021/06/05 07:52:12;;;;;;;6.05;2.10;;;;;;;33.64;20.73;99817.75;6178128;23;20420;-85
2021/06/05 07:54:40;;;;;;;3.03;2.00;;;;;;;34.14;20.57;99816.25;6169852;23;20033;-86
2021/06/05 07:57:08;;;;;;;5.80;2.67;;;;;;;34.72;19.72;99812.25;6145367;23;20018;-86
2021/06/05 07:59:35;;;;;;;6.05;2.55;;;;;;;33.76;19.58;99823.78;6146996;23;20028;-85
2021/06/05 08:02:09;;;;;;;5.22;2.45;;;;;;;33.82;19.44;99808.53;6144868;23;20054;-83
2021/06/05 08:04:39;;;;;;;7.32;2.35;;;;;;;34.25;19.21;99797.28;6138839;23;20041;-85
2021/06/05 08:07:06;;;;;;;4.13;2.20;;;;;;;34.22;19.10;99797.88;6163374;23;20025;-83
2021/06/05 08:09:34;;;;;;;3.83;2.00;;;;;;;34.24;19.76;99798.44;6191022;23;20021;-84
2021/06/05 08:12:05;;;;;;;6.00;2.15;;;;;;;34.90;18.95;99804.91;6118855;23;20046;-84
2021/06/05 08:14:34;;;;;;;;;;;;;;;34.77;19.03;99798.09;6165681;23;20079;-84
2021/06/05 08:17:00;;;;;;;3.35;2.53;;;;;;;34.36;19.03;99795.16;6138527;23;20019;-81
2021/06/05 08:19:36;;;;;;;3.67;2.10;;;;;;;34.82;19.55;99795.22;6137463;23;20033;-84
2021/06/05 08:22:41;;;;;;;2.78;1.95;;;;;;;34.64;19.29;99788.53;6127961;23;20026;-84
2021/06/05 08:25:14;;;;;;;3.22;2.28;;;;;;;35.08;19.01;99795.59;6160431;23;20065;-85
2021/06/05 08:27:45;;;;;;;8.05;2.75;;;;;;;35.49;18.82;99786.34;6135483;23;20596;-87
2021/06/05 08:30:22;;;;;;;3.92;2.05;;;;;;;35.39;19.12;99775.28;6141929;23;20045;-84
2021/06/05 08:32:53;;;;;;;3.58;1.92;;;;;;;34.46;19.16;99784.59;6168543;23;20025;-84
2021/06/05 08:35:28;;;;;;;6.65;2.05;;;;;;;34.82;19.07;99775.56;6142294;23;20029;-85
2021/06/05 08:37:59;;;;;;;3.55;2.40;;;;;;;35.27;18.80;99765.41;6118016;23;20111;-85
2021/06/05 08:41:18;;;;;;;3.42;2.10;;;;;;;34.79;18.83;99760.16;6143424;23;20128;-86
2021/06/05 08:43:52;;;;;;;4.65;2.10;;;;;;;34.48;18.62;99773.91;6083401;23;20025;-85
2021/06/05 08:46:25;;;;;;;7.32;2.38;;;;;;;35.30;18.14;99774.38;6172159;23;20021;-86
2021/06/05 08:48:57;;;;;;;2.75;2.20;;;;;;;35.47;18.03;99766.13;6145165;23;20085;-86
2021/06/05 08:51:54;;;;;;;5.40;2.73;;;;;;;35.81;18.08;99762.88;6166881;23;20093;-86
2021/06/05 08:54:52;;;;;;;6.55;2.55;;;;;;;35.30;17.73;99757.50;6173589;23;20113;-85
2021/06/05 08:57:41;;;;;;;5.78;2.63;;;;;;;34.84;18.73;99761.19;6144781;23;20028;-84
2021/06/05 09:00:29;;;;;;;5.28;2.60;;;;;;;34.86;18.39;99761.72;6147456;23;20025;-85
2021/06/05 09:03:01;;;;;;;3.47;2.50;;;;;;;35.97;18.30;99766.16;6148316;23;20026;-86
2021/06/05 09:05:34;;;;;;;13.40;3.95;;;;;;;35.87;17.87;99772.00;6167729;23;20096;-84
2021/06/05 09:08:02;;;;;;;;;;;;;;;36.80;17.71;99763.00;6123555;23;20029;-86
2021/06/05 09:10:32;;;;;;;4.35;2.28;;;;;;;37.32;17.74;99763.25;6122351;23;19920;-86
2021/06/05 09:12:59;;;;;;;3.45;1.90;;;;;;;36.63;17.72;99744.00;6096658;23;20029;-87
2021/06/05 09:15:35;;;;;;;4.97;1.20;;;;;;;35.55;18.24;99753.34;6148829;23;20044;-86
2021/06/05 09:18:07;;;;;;;4.90;1.88;;;;;;;35.78;18.66;99751.41;6144061;23;20025;-86
2021/06/05 09:20:46;;;;;;;4.63;2.20;;;;;;;36.94;18.09;99744.00;6169993;23;20016;-84
2021/06/05 09:23:34;;;;;;;8.48;2.15;;;;;;;36.21;18.21;99747.03;6148383;23;20084;-86
2021/06/05 09:26:29;;;;;;;4.50;1.80;;;;;;;36.06;17.68;99735.31;6151295;23;20009;-86
2021/06/05 09:29:18;;;;;;;6.22;2.60;;;;;;;36.15;18.60;99744.66;6148228;23;20032;-85
2021/06/05 09:32:04;;;;;;;7.72;2.15;;;;;;;36.49;18.20;99741.25;6124295;23;20029;-84
2021/06/05 09:34:39;;;;;;;5.38;2.67;;;;;;;35.44;18.60;99730.22;6153191;23;20053;-86
2021/06/05 09:37:29;;;;;;;6.32;1.73;;;;;;;35.09;18.91;99729.81;6127418;23;20013;-86
2021/06/05 09:40:17;;;;;;;4.05;1.20;;;;;;;34.20;19.52;99735.63;6125149;23;20021;-87
2021/06/05 09:43:08;;;;;;;3.58;1.75;;;;;;;35.18;19.06;99730.75;6147439;23;20459;-83
2021/06/05 09:45:40;;;;;;;6.95;2.38;;;;;;;34.60;19.13;99739.72;6169078;23;20043;-85
2021/06/05 09:48:28;;;;;;;5.20;1.20;;;;;;;33.69;19.86;99720.41;6170106;23;20133;-87
2021/06/05 09:50:59;;;;;;;2.78;2.30;;;;;;;34.30;19.78;99724.25;6169140;23;20475;-85
2021/06/05 09:53:36;;;;;;;3.58;0.70;;;;;;;33.61;20.16;99707.06;6123706;23;20021;-85
2021/06/05 09:56:12;;;;;;;4.35;0.93;;;;;;;32.13;21.42;99705.84;6142264;23;20009;-84
2021/06/05 09:58:44;;;;;;;2.13;1.40;;;;;;;32.30;21.24;99711.88;6146627;23;20052;-86
2021/06/05 10:01:26;;;;;;;5.78;1.63;;;;;;;33.13;20.61;99713.56;6194716;23;20025;-85
2021/06/05 10:04:17;;;;;;;4.72;1.00;;;;;;;32.65;21.16;99695.88;6144832;23;20006;-83
2021/06/05 10:06:52;;;;;;;3.00;0.85;;;;;;;32.17;21.55;99709.72;6167074;23;20307;-85
2021/06/05 10:09:20;;;;;;;1.92;1.73;;;;;;;32.62;21.32;99718.88;6193246;23;20017;-86
2021/06/05 10:12:14;;;;;;;2.35;1.73;;;;;;;33.18;20.84;99698.66;6144228;23;20058;-85
2021/06/05 10:15:04;;;;;;;2.17;1.90;;;;;;;34.07;19.84;99710.00;6144876;23;20022;-85
2021/06/05 10:17:35;;;;;;;4.15;1.75;;;;;;;35.08;19.12;99700.06;6138420;23;20028;-85
2021/06/05 10:20:24;;;;;;;5.72;1.40;;;;;;;33.84;20.10;99689.31;6169716;23;20017;-85
2021/06/05 10:22:57;;;;;;;4.70;1.00;;;;;;;33.49;21.05;99693.47;6170047;23;20036;-88
2021/06/05 10:25:41;;;;;;;4.47;1.10;;;;;;;32.55;21.65;99685.63;6147206;23;20017;-83
2021/06/05 10:28:24;;;;;;;2.50;1.67;;;;;;;32.99;20.96;99689.38;6149684;23;20021;-85
2021/06/05 10:31:09;;;;;;;3.50;1.00;;;;;;;32.46;22.05;99683.75;6108633;22;20039;-84
2021/06/05 10:33:51;;;;;;;4.50;1.13;;;;;;;32.88;21.79;99686.66;6185526;23;20152;-83
2021/06/05 10:36:42;;;;;;;1.52;1.00;;;;;;;32.41;22.47;99695.84;6156862;23;20116;-86
2021/06/05 10:39:21;;;;;;;4.15;1.40;;;;;;;33.01;21.69;99678.69;6125771;23;20040;-87
2021/06/05 10:42:04;;;;;;;0.85;0.77;;;;;;;32.65;22.62;99690.25;6172085;23;20016;-87
2021/06/05 10:44:31;;;;;;;2.17;1.35;;;;;;;32.88;22.60;99694.22;6123736;23;20056;-84
2021/06/05 10:47:16;;;;;;;2.50;0.85;;;;;;;32.82;22.47;99687.84;6167662;23;20028;-86
2021/06/05 10:50:34;;;;;;;2.17;0.80;;;;;;;31.81;23.43;99696.03;6131576;23;20545;-84
2021/06/05 10:53:13;;;;;;;2.47;0.77;;;;;;;30.88;24.23;99680.81;5997764;23;20032;-84
2021/06/05 10:55:51;;;;;;;1.98;0.80;;;;;;;30.59;24.69;99680.59;5979883;23;20373;-87
2021/06/05 10:58:24;;;;;;;4.45;1.02;;;;;;;29.92;25.53;99674.25;6065141;23;20036;-86
2021/06/05 11:01:01;;;;;;;3.90;0.82;;;;;;;29.40;26.46;99675.25;6170431;23;20234;-87
2021/06/05 11:03:27;;;;;;;6.43;1.27;;;;;;;28.75;27.22;99680.25;6126742;23;20116;-85
2021/06/05 11:06:14;;;;;;;5.00;0.95;;;;;;;28.30;27.83;99678.84;6124134;23;20333;-84
2021/06/05 11:09:01;;;;;;;4.80;0.95;;;;;;;27.71;28.69;99678.84;6128380;23;20029;-84
2021/06/05 11:11:35;;;;;;;2.22;0.82;;;;;;;27.34;29.09;99685.16;6120678;23;20028;-85
2021/06/05 11:14:33;;;;;;;1.65;0.95;;;;;;;27.11;29.35;99683.50;6197951;23;20081;-85
2021/06/05 11:17:00;;;;;;;2.28;1.00;;;;;;;26.78;30.69;99691.91;6200854;22;20012;-84
2021/06/05 11:20:02;;;;;;;3.67;1.00;;;;;;;26.33;30.94;99685.44;6172314;23;20017;-84
2021/06/05 11:22:49;;;;;;;6.72;1.70;;;;;;;26.05;31.17;99685.53;6160296;23;20025;-84
2021/06/05 11:25:43;;;;;;;2.58;1.10;;;;;;;26.03;31.44;99685.75;6149941;23;20090;-83
2021/06/05 11:28:43;;;;;;;5.72;1.40;;;;;;;26.05;31.87;99693.84;6178096;23;20016;-83
2021/06/05 11:31:41;;;;;;;4.13;1.27;;;;;;;25.84;32.27;99692.63;6152032;23;20043;-84
2021/06/05 11:34:11;;;;;;;2.40;1.00;;;;;;;25.74;32.93;99687.72;6173008;23;20029;-85
2021/06/05 11:36:42;;;;;;;5.68;1.55;;;;;;;25.94;32.74;99699.19;6199912;23;20009;-85
2021/06/05 11:39:21;;;;;;;;;;;;;;;25.94;32.96;99687.28;6175967;23;20025;-84
2021/06/05 11:41:52;;;;;;;3.85;1.15;;;;;;;25.79;33.28;99698.09;6176731;23;19924;-82
2021/06/05 11:44:41;;;;;;;8.23;2.03;;;;;;;25.76;33.28;99712.41;6202028;23;20027;-83
2021/06/05 11:47:22;;;;;;;9.45;2.08;;;;;;;25.19;33.80;99708.56;6178771;23;20033;-84
2021/06/05 11:49:53;;;;;;;3.85;1.20;;;;;;;25.12;34.64;99707.88;6153419;23;20000;-83
2021/06/05 11:52:50;;;;;;;7.75;1.77;;;;;;;24.95;34.72;99707.75;6200622;23;20123;-85
2021/06/05 11:55:28;;;;;;;3.67;1.10;;;;;;;25.19;34.53;99708.56;6119394;23;20017;-85
2021/06/05 11:58:33;;;;;;;1.52;1.10;;;;;;;25.15;35.13;99710.13;6155721;23;20009;-85
2021/06/05 12:01:29;;;;;;;2.67;1.27;;;;;;;25.30;34.97;99711.53;6169771;23;20032;-85
2021/06/05 12:04:20;;;;;;;10.77;2.08;;;;;;;25.28;35.40;99705.41;6197238;23;20021;-84